Hammersmith, United Kingdom
Current Conditions -  °F | °C
As of 1:50 AM on Wednesday 22 Oct 2014 (Local Time) from EGWU Reporting Station
Clear Clear  
Wind Chill: 39°   Ceiling: Unl
Heat Index: 45°   Visibility: 6mi
Dew Point: 34°   Wind: 12mph
Humidity: 66%   Direction: 290°WNW
Pressure: 30.18"   Gusts: NA
Location:  51.49°N, 0.23°W
Report Text: EGWU 220050Z AUTO 29010KT 9999 // NCD 07/01 Q1022
Loading
Personal Weather Stations






























Interactive Weather Map
Tropical Storm Tracking
New forecast layout! Learn more

10-Day Weather Forecast

Advertisements
Track Severe Weather on mobile